Time;durP1;ratioP1;P1;durP2;ratioP2;P2;SDS_P1;SDS_P2;PMS_P1;PMS_P2;Temp;Humidity;BMP_temperature;BMP_pressure;BME280_temperature;BME280_humidity;BME280_pressure;Samples;Min_cycle;Max_cycle;Signal;HPM_P1;HPM_P2
2020/12/17 00:00:32;;;;;;;7.33;5.90;;;11.90;99.90;;;;;;5075539;28;20178;-81
2020/12/17 00:02:57;;;;;;;6.13;5.50;;;11.90;99.90;;;;;;5076813;28;20833;-81
2020/12/17 00:05:23;;;;;;;8.80;5.50;;;12.00;99.90;;;;;;5075206;28;20432;-81
2020/12/17 00:07:49;;;;;;;9.83;6.40;;;12.00;99.90;;;;;;5076586;28;20261;-81
2020/12/17 00:10:15;;;;;;;6.53;5.90;;;12.00;99.90;;;;;;5076689;28;20175;-81
2020/12/17 00:12:45;;;;;;;6.77;6.00;;;12.00;99.90;;;;;;5073440;28;20197;-82
2020/12/17 00:15:13;;;;;;;7.63;5.27;;;11.90;99.90;;;;;;5072922;28;20479;-74
2020/12/17 00:17:40;;;;;;;10.33;5.40;;;11.90;99.90;;;;;;5072751;28;20811;-75
2020/12/17 00:20:06;;;;;;;8.40;5.87;;;12.10;99.90;;;;;;5072682;28;20423;-75
2020/12/17 00:22:41;;;;;;;7.80;5.00;;;12.10;99.90;;;;;;5072595;28;20421;-76
2020/12/17 00:25:08;;;;;;;6.13;5.53;;;12.10;99.90;;;;;;5071380;28;20197;-78
2020/12/17 00:27:35;;;;;;;9.67;5.73;;;12.10;99.90;;;;;;5072188;28;20493;-76
2020/12/17 00:30:00;;;;;;;6.90;5.03;;;12.20;99.90;;;;;;5071332;28;20536;-75
2020/12/17 00:32:26;;;;;;;6.40;5.07;;;12.20;99.90;;;;;;5070572;28;20504;-76
2020/12/17 00:34:52;;;;;;;8.10;5.10;;;12.20;99.90;;;;;;5071586;28;20220;-77
2020/12/17 00:37:17;;;;;;;8.20;5.90;;;12.30;99.90;;;;;;5072020;28;20502;-76
2020/12/17 00:39:44;;;;;;;6.60;5.10;;;12.20;99.90;;;;;;5071076;28;20637;-76
2020/12/17 00:42:10;;;;;;;9.70;5.10;;;12.20;99.90;;;;;;5072082;28;20213;-77
2020/12/17 00:44:36;;;;;;;5.23;4.50;;;12.20;99.90;;;;;;5071389;28;20835;-76
2020/12/17 00:47:01;;;;;;;4.90;4.20;;;12.20;99.90;;;;;;5071516;28;20688;-76
2020/12/17 00:49:27;;;;;;;5.70;4.93;;;12.30;99.90;;;;;;5071862;28;20219;-75
2020/12/17 00:52:02;;;;;;;9.20;4.50;;;12.40;99.90;;;;;;5071470;28;20660;-76
2020/12/17 00:54:28;;;;;;;7.33;4.70;;;12.40;99.90;;;;;;5068999;28;20703;-75
2020/12/17 00:56:54;;;;;;;6.30;5.23;;;12.40;99.90;;;;;;5071830;28;20421;-76
2020/12/17 00:59:20;;;;;;;5.23;4.23;;;12.40;99.90;;;;;;5071684;28;20428;-75
2020/12/17 01:01:46;;;;;;;6.20;4.30;;;12.40;99.90;;;;;;5071535;28;20202;-75
2020/12/17 01:04:12;;;;;;;5.30;4.60;;;12.30;99.90;;;;;;5071107;28;20982;-74
2020/12/17 01:06:37;;;;;;;8.23;5.17;;;12.30;99.90;;;;;;5070960;28;20637;-83
2020/12/17 01:09:03;;;;;;;10.63;5.20;;;12.30;99.90;;;;;;5072392;28;20223;-83
2020/12/17 01:11:31;;;;;;;5.43;4.93;;;12.30;99.90;;;;;;5072757;28;20167;-84
2020/12/17 01:13:57;;;;;;;4.63;4.23;;;12.20;99.90;;;;;;5072031;28;20502;-84
2020/12/17 01:16:23;;;;;;;8.83;4.50;;;12.30;99.90;;;;;;5071774;28;20829;-84
2020/12/17 01:18:50;;;;;;;5.67;4.70;;;12.30;99.90;;;;;;5071959;28;20757;-83
2020/12/17 01:21:16;;;;;;;5.10;4.47;;;12.30;99.90;;;;;;5071416;28;20416;-82
2020/12/17 01:23:42;;;;;;;8.60;4.60;;;12.30;99.90;;;;;;5071298;28;20474;-82
2020/12/17 01:26:09;;;;;;;5.47;4.97;;;12.40;99.90;;;;;;5071414;28;20615;-82
2020/12/17 01:28:39;;;;;;;9.93;4.53;;;12.30;99.90;;;;;;5072635;28;20440;-82
2020/12/17 01:31:08;;;;;;;7.80;5.40;;;12.30;99.90;;;;;;5073199;28;20455;-82
2020/12/17 01:33:34;;;;;;;4.70;3.73;;;12.30;99.90;;;;;;5073033;28;20452;-81
2020/12/17 01:36:02;;;;;;;6.77;3.70;;;12.30;99.90;;;;;;5074492;28;20478;-82
2020/12/17 01:38:27;;;;;;;4.27;3.83;;;12.30;99.90;;;;;;5076889;28;20178;-81
2020/12/17 01:40:53;;;;;;;15.93;4.53;;;12.30;99.90;;;;;;5076753;28;20511;-81
2020/12/17 01:43:18;;;;;;;5.90;4.97;;;12.40;99.90;;;;;;5075574;28;20202;-81
2020/12/17 01:45:44;;;;;;;6.77;4.77;;;12.30;99.90;;;;;;5077007;28;20170;-81
2020/12/17 01:48:14;;;;;;;4.90;4.30;;;12.40;99.90;;;;;;5077882;28;20177;-81
2020/12/17 01:50:40;;;;;;;6.20;4.20;;;12.40;99.90;;;;;;5078250;28;20585;-81
2020/12/17 01:53:06;;;;;;;5.60;4.40;;;12.40;99.90;;;;;;5078044;28;20522;-80
2020/12/17 01:55:31;;;;;;;5.70;4.27;;;12.40;99.90;;;;;;5079958;28;20571;-80
2020/12/17 01:58:00;;;;;;;7.97;4.83;;;12.30;99.90;;;;;;5082060;28;20179;-80
2020/12/17 02:00:30;;;;;;;7.97;4.83;;;12.30;99.90;;;;;;5078021;28;20178;-81
2020/12/17 02:02:55;;;;;;;5.80;4.23;;;12.40;99.90;;;;;;5076461;28;20826;-81
2020/12/17 02:05:21;;;;;;;5.00;3.93;;;12.30;99.90;;;;;;5076556;28;20424;-81
2020/12/17 02:07:47;;;;;;;6.53;4.50;;;12.40;99.90;;;;;;5076444;28;20170;-75
2020/12/17 06:31:25;;;;;;;6.57;4.60;;;12.00;99.90;;;;;;5695230;22;20679;-79
2020/12/17 06:33:55;;;;;;;7.73;5.60;;;12.00;99.90;;;;;;5035583;28;20478;-79
2020/12/17 06:36:44;;;;;;;6.23;4.87;;;12.00;99.90;;;;;;5036047;28;20434;-79
2020/12/17 06:39:09;;;;;;;7.23;4.20;;;11.90;99.90;;;;;;5057653;22;20581;-86
2020/12/17 06:41:35;;;;;;;6.40;5.80;;;12.10;99.90;;;;;;5036029;28;20473;-86
2020/12/17 06:44:21;;;;;;;8.37;5.03;;;12.00;99.90;;;;;;5036008;28;20519;-86
2020/12/17 06:46:54;;;;;;;6.07;5.20;;;12.00;99.90;;;;;;5035605;28;20183;-85
2020/12/17 06:49:25;;;;;;;10.73;5.20;;;12.10;99.90;;;;;;5035620;28;20430;-85
2020/12/17 06:52:11;;;;;;;5.47;4.97;;;12.00;99.90;;;;;;5035696;28;20422;-86
2020/12/17 06:54:41;;;;;;;6.73;5.43;;;12.10;99.90;;;;;;5035859;28;20482;-85
2020/12/17 06:57:11;;;;;;;11.40;4.80;;;12.00;99.90;;;;;;5035508;28;20415;-85
2020/12/17 06:59:38;;;;;;;5.93;5.23;;;11.90;99.90;;;;;;5035646;28;20425;-86
2020/12/17 07:02:05;;;;;;;7.40;5.53;;;11.90;99.90;;;;;;5035555;28;20514;-85
2020/12/17 16:48:48;;;;;;;11.03;3.40;;;10.20;99.90;;;;;;5069371;27;20572;-62
2020/12/17 16:51:15;;;;;;;5.83;2.70;;;10.30;99.90;;;;;;5059515;28;20793;-62
2020/12/17 16:53:43;;;;;;;3.10;2.07;;;10.40;99.90;;;;;;5053848;28;20862;-61
2020/12/17 16:56:09;;;;;;;2.30;2.10;;;10.50;99.90;;;;;;5050386;28;20428;-62
2020/12/17 16:58:34;;;;;;;3.03;2.20;;;10.70;99.90;;;;;;5050443;28;20418;-62
2020/12/17 17:00:59;;;;;;;7.20;3.10;;;10.80;99.90;;;;;;5050246;28;20179;-61
2020/12/17 17:03:25;;;;;;;10.50;3.03;;;10.80;99.90;;;;;;5050289;28;20175;-62
2020/12/17 17:05:50;;;;;;;3.60;2.60;;;10.80;99.90;;;;;;5050291;28;20179;-62
2020/12/17 17:08:16;;;;;;;7.63;2.77;;;10.90;99.90;;;;;;5050063;28;20215;-62
2020/12/17 17:10:41;;;;;;;5.37;2.40;;;10.90;99.90;;;;;;5050179;28;20167;-62
2020/12/17 17:13:07;;;;;;;7.33;3.23;;;11.00;99.90;;;;;;5050083;28;20197;-61
2020/12/17 17:15:33;;;;;;;3.23;2.30;;;11.00;99.90;;;;;;5049920;28;20182;-62
2020/12/17 17:17:58;;;;;;;5.10;3.07;;;10.90;99.90;;;;;;5049936;28;20647;-61
2020/12/17 17:20:24;;;;;;;6.40;2.60;;;10.90;99.90;;;;;;5061975;28;20175;-62
2020/12/17 17:22:49;;;;;;;5.40;2.50;;;11.00;99.90;;;;;;5069563;28;20186;-61
2020/12/17 17:25:15;;;;;;;3.90;2.20;;;11.10;99.90;;;;;;5069760;28;20183;-61
2020/12/17 17:27:40;;;;;;;4.37;3.03;;;11.10;99.90;;;;;;5069697;28;20826;-61
2020/12/17 17:30:06;;;;;;;5.27;2.90;;;11.00;99.90;;;;;;5069751;28;20541;-61
2020/12/17 17:32:32;;;;;;;8.87;3.00;;;11.00;99.90;;;;;;5069771;28;20182;-61
2020/12/17 17:34:58;;;;;;;4.37;2.60;;;11.00;99.90;;;;;;5069682;28;20451;-61
2020/12/17 17:37:24;;;;;;;2.27;1.97;;;11.00;99.90;;;;;;5069509;28;20615;-61
2020/12/17 17:39:49;;;;;;;4.53;2.40;;;11.00;99.90;;;;;;5068537;28;20186;-61
2020/12/17 17:42:15;;;;;;;6.67;2.40;;;11.00;99.90;;;;;;5068552;28;20479;-61
2020/12/17 17:44:41;;;;;;;10.17;3.23;;;10.90;99.90;;;;;;5068138;28;20550;-61
2020/12/17 17:47:07;;;;;;;7.63;2.60;;;10.90;99.90;;;;;;5068288;28;20314;-61
2020/12/17 17:49:33;;;;;;;6.80;2.60;;;11.00;99.90;;;;;;5068486;28;20174;-61
2020/12/17 17:52:00;;;;;;;5.77;2.53;;;10.90;99.90;;;;;;5068445;28;20473;-62
2020/12/17 17:54:30;;;;;;;5.90;2.40;;;11.00;99.90;;;;;;5067148;28;20586;-61
2020/12/17 17:56:56;;;;;;;7.33;3.00;;;11.10;99.90;;;;;;5056943;28;20429;-61
2020/12/17 17:59:23;;;;;;;3.37;2.37;;;11.10;99.90;;;;;;5047103;28;20442;-62
2020/12/17 18:01:52;;;;;;;11.87;3.00;;;11.00;99.90;;;;;;5044591;28;20436;-62
2020/12/17 18:04:18;;;;;;;6.30;3.07;;;11.00;99.90;;;;;;5047402;28;20425;-62
2020/12/17 18:06:43;;;;;;;5.13;3.07;;;10.90;99.90;;;;;;5054935;28;20593;-62
2020/12/17 18:09:09;;;;;;;10.47;2.90;;;11.00;99.90;;;;;;5054920;28;20381;-62
2020/12/17 18:11:37;;;;;;;5.43;2.80;;;11.00;99.90;;;;;;5054361;28;20253;-62
2020/12/17 18:14:03;;;;;;;5.93;3.03;;;11.10;99.90;;;;;;5052745;28;20932;-62
2020/12/17 18:16:30;;;;;;;5.63;3.33;;;11.10;99.90;;;;;;5052539;28;20472;-66
2020/12/17 18:18:56;;;;;;;4.23;2.30;;;11.00;99.90;;;;;;5054595;28;20520;-62
2020/12/17 18:21:22;;;;;;;4.70;2.20;;;11.20;99.90;;;;;;5045025;28;20434;-62
2020/12/17 18:23:48;;;;;;;8.93;2.97;;;11.10;99.90;;;;;;5043634;28;20504;-62
2020/12/17 18:26:21;;;;;;;6.37;3.30;;;11.10;99.90;;;;;;5044890;28;20428;-62
2020/12/17 18:28:48;;;;;;;8.53;3.03;;;11.20;99.90;;;;;;5044500;28;20839;-68
2020/12/17 18:31:13;;;;;;;3.83;2.83;;;11.20;99.90;;;;;;5042864;28;20430;-66
2020/12/17 18:33:39;;;;;;;4.23;2.93;;;11.20;99.90;;;;;;5044676;28;21015;-68
2020/12/17 18:36:07;;;;;;;5.37;3.10;;;11.20;99.90;;;;;;5043388;28;20187;-68
2020/12/17 18:38:32;;;;;;;8.10;3.63;;;11.10;99.90;;;;;;5043290;28;20217;-68
2020/12/17 18:40:58;;;;;;;5.00;3.70;;;11.10;99.90;;;;;;5044745;28;20457;-69
2020/12/17 18:43:23;;;;;;;6.57;3.03;;;11.10;99.90;;;;;;5043176;28;20195;-66
2020/12/17 18:45:49;;;;;;;12.43;3.50;;;11.20;99.90;;;;;;5043522;28;20665;-72
2020/12/17 18:48:15;;;;;;;4.50;3.60;;;11.20;99.90;;;;;;5047146;28;20288;-63
2020/12/17 18:50:40;;;;;;;3.20;2.70;;;11.20;99.90;;;;;;5053914;28;20179;-63
2020/12/17 18:53:06;;;;;;;5.47;3.00;;;11.20;99.90;;;;;;5053974;28;20175;-63
2020/12/17 18:55:32;;;;;;;5.50;3.23;;;11.20;99.90;;;;;;5053890;28;20655;-63
2020/12/17 18:57:57;;;;;;;5.20;2.80;;;11.20;99.90;;;;;;5053921;28;20535;-64
2020/12/17 19:00:22;;;;;;;8.23;3.40;;;11.20;99.90;;;;;;5053914;28;20171;-63
2020/12/17 19:02:48;;;;;;;3.10;2.57;;;11.20;99.90;;;;;;5053864;28;20172;-63
2020/12/17 19:05:14;;;;;;;5.47;2.70;;;11.30;99.90;;;;;;5053785;28;20179;-64
2020/12/17 19:07:42;;;;;;;4.27;3.00;;;11.30;99.90;;;;;;5053517;28;20229;-63
2020/12/17 19:10:08;;;;;;;10.47;3.20;;;11.30;99.90;;;;;;5052810;28;20179;-63
2020/12/17 19:12:34;;;;;;;12.37;2.47;;;11.30;99.90;;;;;;5053478;28;20775;-64
2020/12/17 19:15:01;;;;;;;6.23;3.27;;;11.30;99.90;;;;;;5049742;28;20187;-63
2020/12/17 19:17:26;;;;;;;4.27;3.43;;;11.30;99.90;;;;;;5053571;28;20784;-64
2020/12/17 19:19:52;;;;;;;6.10;2.90;;;11.30;99.90;;;;;;5047990;28;20422;-64
2020/12/17 19:22:21;;;;;;;7.87;2.87;;;11.30;99.90;;;;;;5033646;28;20187;-63
2020/12/17 19:24:47;;;;;;;7.13;2.83;;;11.30;99.90;;;;;;5041986;28;20186;-63
2020/12/17 19:27:15;;;;;;;7.23;3.20;;;11.10;99.90;;;;;;5053162;28;20461;-64
2020/12/17 19:29:44;;;;;;;7.50;3.70;;;11.10;99.90;;;;;;5053128;28;20207;-64
2020/12/17 19:32:10;;;;;;;4.03;3.60;;;11.10;99.90;;;;;;5053139;28;20424;-63
2020/12/17 19:34:36;;;;;;;3.90;2.50;;;11.20;99.90;;;;;;5053167;28;20937;-63
2020/12/17 19:37:02;;;;;;;8.37;4.07;;;11.20;99.90;;;;;;5052947;28;20197;-62
2020/12/17 19:39:27;;;;;;;5.20;3.80;;;11.20;99.90;;;;;;5053004;28;20417;-62
2020/12/17 19:41:55;;;;;;;3.80;3.33;;;11.20;99.90;;;;;;5053066;28;20261;-63
2020/12/17 19:44:21;;;;;;;5.03;3.30;;;11.20;99.90;;;;;;5048896;28;20179;-63
2020/12/17 19:46:47;;;;;;;5.33;2.87;;;11.20;99.90;;;;;;5041351;28;20500;-63
2020/12/17 19:49:12;;;;;;;3.87;2.83;;;11.20;99.90;;;;;;5043369;28;20422;-64
2020/12/17 19:51:38;;;;;;;5.33;3.73;;;11.20;99.90;;;;;;5042024;28;20631;-65
2020/12/17 19:54:04;;;;;;;3.93;2.90;;;11.30;99.90;;;;;;5046802;28;20183;-65
2020/12/17 19:56:30;;;;;;;6.50;3.20;;;11.30;99.90;;;;;;5052784;28;20510;-68
2020/12/17 19:58:56;;;;;;;6.00;2.40;;;11.20;99.90;;;;;;5052683;28;20257;-66
2020/12/17 20:01:39;;;;;;;6.63;2.73;;;11.20;99.90;;;;;;5052591;28;20524;-65
2020/12/17 20:04:06;;;;;;;3.37;2.67;;;11.10;99.90;;;;;;5052613;28;20261;-66
2020/12/17 20:06:38;;;;;;;4.57;2.40;;;11.10;99.90;;;;;;5052658;28;20433;-66
2020/12/17 20:09:06;;;;;;;6.37;2.67;;;11.10;99.90;;;;;;5052603;28;20471;-66
2020/12/17 20:11:32;;;;;;;5.93;3.10;;;11.10;99.90;;;;;;5052742;28;20425;-65
2020/12/17 20:13:57;;;;;;;7.33;3.00;;;11.00;99.90;;;;;;5052477;28;20425;-66
2020/12/17 20:16:23;;;;;;;5.80;2.70;;;11.00;99.90;;;;;;5039249;28;20489;-62
2020/12/17 20:18:49;;;;;;;5.23;2.70;;;11.10;99.90;;;;;;5034942;28;20179;-63
2020/12/17 20:21:22;;;;;;;5.97;2.93;;;11.10;99.90;;;;;;5036947;28;20184;-63
2020/12/17 20:23:48;;;;;;;5.70;2.57;;;11.20;99.90;;;;;;5031976;28;20194;-63
2020/12/17 20:26:32;;;;;;;4.70;2.23;;;11.20;99.90;;;;;;5033328;28;20442;-63
2020/12/17 20:28:58;;;;;;;4.93;2.67;;;11.30;99.90;;;;;;5048415;28;20781;-64
2020/12/17 20:31:25;;;;;;;7.10;2.77;;;11.20;99.90;;;;;;5038520;28;20426;-63
2020/12/17 20:33:51;;;;;;;3.90;2.57;;;11.10;99.90;;;;;;5038098;28;20438;-63
2020/12/17 20:36:21;;;;;;;4.43;3.30;;;11.00;99.90;;;;;;5045978;28;20428;-64
2020/12/17 20:38:48;;;;;;;6.33;2.70;;;11.10;99.90;;;;;;5035907;28;20492;-63
2020/12/17 20:41:25;;;;;;;4.97;4.27;;;11.00;99.90;;;;;;5048403;28;20857;-63
2020/12/17 20:43:52;;;;;;;5.43;2.40;;;11.00;99.90;;;;;;5040865;28;20487;-63
2020/12/17 20:46:18;;;;;;;10.23;3.07;;;11.10;99.90;;;;;;5038667;28;20956;-63
2020/12/17 20:48:47;;;;;;;4.20;2.60;;;11.00;99.90;;;;;;5048197;28;20572;-64
2020/12/17 20:51:14;;;;;;;3.70;2.50;;;11.10;99.90;;;;;;5036279;28;20220;-64
2020/12/17 20:53:40;;;;;;;2.57;2.10;;;11.10;99.90;;;;;;5043935;28;20430;-64
2020/12/17 20:56:07;;;;;;;10.27;2.93;;;11.00;99.90;;;;;;5043500;28;20426;-64
2020/12/17 20:58:33;;;;;;;5.30;3.10;;;11.00;99.90;;;;;;5036672;28;20182;-63
2020/12/17 21:01:00;;;;;;;4.93;2.30;;;10.90;99.90;;;;;;5036413;28;20437;-62
2020/12/17 21:03:25;;;;;;;5.10;2.97;;;10.90;99.90;;;;;;5045862;28;20447;-62
2020/12/17 21:05:51;;;;;;;4.57;3.33;;;10.90;99.90;;;;;;5041598;28;20428;-62
2020/12/17 21:08:18;;;;;;;3.90;2.20;;;10.90;99.90;;;;;;5038231;28;20207;-63
2020/12/17 21:10:46;;;;;;;8.43;3.37;;;10.80;99.90;;;;;;5048229;28;20432;-63
2020/12/17 21:13:15;;;;;;;4.40;2.77;;;10.80;99.90;;;;;;5035854;28;20461;-63
2020/12/17 21:15:40;;;;;;;5.90;2.90;;;10.80;99.90;;;;;;5043717;28;20522;-62
2020/12/17 21:18:06;;;;;;;7.30;3.50;;;10.80;99.90;;;;;;5043243;28;20979;-63
2020/12/17 21:20:32;;;;;;;4.50;3.00;;;10.80;99.90;;;;;;5036957;28;20263;-62
2020/12/17 21:22:57;;;;;;;5.30;2.80;;;10.80;99.90;;;;;;5048271;28;20509;-62
2020/12/17 21:25:23;;;;;;;4.30;2.80;;;10.70;99.90;;;;;;5031829;28;20172;-64
2020/12/17 21:27:48;;;;;;;4.20;2.70;;;10.70;99.90;;;;;;5034485;28;20246;-64
2020/12/17 21:30:14;;;;;;;3.57;2.77;;;10.70;99.90;;;;;;5032813;28;20175;-63
2020/12/17 21:32:41;;;;;;;8.50;3.03;;;10.70;99.90;;;;;;5047822;28;20541;-62
2020/12/17 21:35:07;;;;;;;4.90;2.57;;;10.70;99.90;;;;;;5042572;28;20179;-62
2020/12/17 21:37:32;;;;;;;3.87;2.60;;;10.60;99.90;;;;;;5049892;28;20784;-62
2020/12/17 21:39:58;;;;;;;6.10;3.13;;;10.60;99.90;;;;;;5054978;28;20239;-63
2020/12/17 21:42:24;;;;;;;8.43;2.90;;;10.60;99.90;;;;;;5040819;28;20186;-63
2020/12/17 21:44:49;;;;;;;4.80;3.07;;;10.60;99.90;;;;;;5050794;28;20203;-63
2020/12/17 21:47:15;;;;;;;6.37;3.40;;;10.60;99.90;;;;;;5043992;28;20574;-63
2020/12/17 21:49:40;;;;;;;7.23;3.03;;;10.60;99.90;;;;;;5043761;28;20243;-64
2020/12/17 21:52:06;;;;;;;7.20;2.90;;;10.60;99.90;;;;;;5036869;28;20184;-64
2020/12/17 21:54:31;;;;;;;7.80;2.83;;;10.50;99.90;;;;;;5051521;28;20183;-62
2020/12/17 21:56:57;;;;;;;4.13;3.07;;;10.50;99.90;;;;;;5039274;28;20182;-66
2020/12/17 21:59:24;;;;;;;5.93;3.00;;;10.50;99.90;;;;;;5037331;28;20172;-64
2020/12/17 22:01:50;;;;;;;7.13;3.57;;;10.50;99.90;;;;;;5043836;28;20266;-67
2020/12/17 22:04:16;;;;;;;5.20;3.43;;;10.40;99.90;;;;;;5038824;28;20430;-67
2020/12/17 22:06:44;;;;;;;5.30;3.10;;;10.40;99.90;;;;;;5037318;28;20484;-66
2020/12/17 22:09:10;;;;;;;5.00;2.97;;;10.40;99.90;;;;;;5037075;28;20190;-66
2020/12/17 22:11:35;;;;;;;10.40;3.27;;;10.40;99.90;;;;;;5037241;28;20422;-65
2020/12/17 22:14:01;;;;;;;2.73;2.33;;;10.40;99.90;;;;;;5035159;28;20255;-65
2020/12/17 22:16:26;;;;;;;4.60;4.17;;;10.40;99.90;;;;;;5036352;28;20176;-67
2020/12/17 22:18:52;;;;;;;7.00;3.07;;;10.40;99.90;;;;;;5035193;28;20222;-63
2020/12/17 22:21:20;;;;;;;4.87;3.53;;;10.30;99.90;;;;;;5034807;28;20583;-63
2020/12/17 22:23:45;;;;;;;4.37;2.53;;;10.30;99.90;;;;;;5034883;28;20425;-67
2020/12/17 22:26:11;;;;;;;5.17;3.10;;;10.30;99.90;;;;;;5033347;28;20445;-67
2020/12/17 22:28:36;;;;;;;6.77;2.77;;;10.40;99.90;;;;;;5032929;28;20242;-67
2020/12/17 22:31:02;;;;;;;11.73;3.33;;;10.30;99.90;;;;;;5035388;28;20632;-67
2020/12/17 22:33:27;;;;;;;3.87;3.33;;;10.30;99.90;;;;;;5034009;28;20176;-66
2020/12/17 22:35:53;;;;;;;8.00;3.00;;;10.30;99.90;;;;;;5034108;28;20172;-66
2020/12/17 22:38:18;;;;;;;7.43;3.00;;;10.20;99.90;;;;;;5034073;28;20305;-67
2020/12/17 22:40:44;;;;;;;5.10;3.20;;;10.20;99.90;;;;;;5034140;28;20195;-67
2020/12/17 22:43:10;;;;;;;6.10;3.37;;;10.20;99.90;;;;;;5033897;28;20270;-66
2020/12/17 22:45:35;;;;;;;6.60;3.30;;;10.20;99.90;;;;;;5033787;28;20282;-67
2020/12/17 22:48:01;;;;;;;6.77;2.63;;;10.20;99.90;;;;;;5034424;28;20215;-63
2020/12/17 22:50:26;;;;;;;6.67;3.10;;;10.20;99.90;;;;;;5035903;28;20171;-65
2020/12/17 22:52:52;;;;;;;5.53;3.17;;;10.20;99.90;;;;;;5044856;28;20175;-66
2020/12/17 22:55:17;;;;;;;4.33;3.13;;;10.10;99.90;;;;;;5044234;28;20259;-66
2020/12/17 22:57:43;;;;;;;5.23;3.10;;;10.10;99.90;;;;;;5045970;28;20182;-66
2020/12/17 23:00:11;;;;;;;5.53;3.27;;;10.00;99.90;;;;;;5042802;28;20667;-66
2020/12/17 23:02:37;;;;;;;5.70;3.23;;;10.00;99.90;;;;;;5043037;28;20234;-66
2020/12/17 23:05:04;;;;;;;10.60;3.43;;;10.00;99.90;;;;;;5038690;28;20430;-66
2020/12/17 23:07:33;;;;;;;8.97;3.17;;;10.00;99.90;;;;;;5031110;28;20195;-77
2020/12/17 23:09:58;;;;;;;9.27;3.40;;;10.00;99.90;;;;;;5041841;28;20838;-63
2020/12/17 23:12:24;;;;;;;4.27;2.90;;;10.00;99.90;;;;;;5036545;28;20476;-64
2020/12/17 23:14:49;;;;;;;3.63;3.37;;;10.00;99.90;;;;;;5033977;28;20225;-63
2020/12/17 23:17:15;;;;;;;5.43;3.77;;;10.00;99.90;;;;;;5033574;28;20187;-64
2020/12/17 23:19:40;;;;;;;8.80;3.20;;;10.00;99.90;;;;;;5033990;28;20204;-64
2020/12/17 23:22:06;;;;;;;9.03;3.43;;;10.00;99.90;;;;;;5033762;28;20583;-64
2020/12/17 23:24:31;;;;;;;11.63;3.83;;;10.00;99.90;;;;;;5034107;28;20179;-64
2020/12/17 23:26:59;;;;;;;5.10;2.90;;;10.00;99.90;;;;;;5032707;28;20227;-64
2020/12/17 23:29:24;;;;;;;6.10;4.07;;;10.00;99.90;;;;;;5036366;28;20187;-63
2020/12/17 23:31:50;;;;;;;6.30;2.80;;;9.90;99.90;;;;;;5038991;28;20430;-63
2020/12/17 23:34:15;;;;;;;10.00;3.63;;;9.90;99.90;;;;;;5044659;28;20210;-66
2020/12/17 23:36:41;;;;;;;9.97;3.40;;;9.90;99.90;;;;;;5039549;28;20257;-65
2020/12/17 23:39:07;;;;;;;7.67;3.70;;;9.90;99.90;;;;;;5032877;28;20179;-65
2020/12/17 23:41:33;;;;;;;6.20;3.33;;;9.90;99.90;;;;;;5032770;28;20176;-64
2020/12/17 23:43:58;;;;;;;7.00;3.70;;;9.90;99.90;;;;;;5032859;28;20176;-66
2020/12/17 23:46:25;;;;;;;6.87;3.23;;;9.90;99.90;;;;;;5032517;28;20196;-65
2020/12/17 23:48:51;;;;;;;9.70;3.60;;;9.80;99.90;;;;;;5032855;28;20215;-65
2020/12/17 23:51:22;;;;;;;4.10;3.20;;;9.90;99.90;;;;;;5032615;28;20423;-66
2020/12/17 23:53:48;;;;;;;9.53;3.30;;;9.90;99.90;;;;;;5032698;28;20476;-65
2020/12/17 23:56:19;;;;;;;6.13;3.33;;;9.80;99.90;;;;;;5032011;28;20832;-66
2020/12/17 23:58:48;;;;;;;6.40;3.33;;;9.80;99.90;;;;;;5030604;28;20465;-66
